Main page
METAR-TAF:

METAR-TAF

Airports :

Gwadar International Airport

Gwadar, Pakistan

latitude: 25-13-59N, longitude: 062-19-46E, elevation: 29 m

METAR: missing

Time: 23:43 (18:43 UTC)

Forecast

The report was made 3 hours and 13 minutes ago, at 15:30 UTC
Forecast valid from 19 at 18 UTC to 20 at 18 UTC
Wind 5 kt from the North/Northwest
Visibility: 4000 m
haze
Temporary
from 20 at 00 UTC to 20 at 04 UTC
Wind 4 kt from the Northeast
Visibility: 3000 m
haze
From 20 at 0600 UTC
Wind 8 kt from the Southeast
Visibility: 6000 m

TAF: OPGD 191530Z 1918/2018 34005KT 4000 HZ NSC TEMPO 2000/2004 05004KT 3000 HZ NSC FM200600 13008KT 6000 NSC

Weather observations and forecasts of more than 4000 airports (METAR and TAF reports).

The available stations are represented by yellow and red dots on the map.

Hover mouse over dot to see the name of the station.

Then click to see weather observations and forecasts.

To change the map : click on the green buttons with a black cross to zoom in, on the green button with a dash to zoom out, or on the green arrows for adjacent maps.


METAR-TAF: